sensor_id;sensor_type;location;lat;lon;timestamp;temperature;humidity
30999;DHT22;20549;50.042;8.968;2023-01-13T00:00:22;13.20;96.40
30999;DHT22;20549;50.042;8.968;2023-01-13T00:02:49;13.20;96.40
30999;DHT22;20549;50.042;8.968;2023-01-13T00:05:16;13.20;96.50
30999;DHT22;20549;50.042;8.968;2023-01-13T00:07:42;13.20;96.30
30999;DHT22;20549;50.042;8.968;2023-01-13T00:10:09;13.20;96.30
30999;DHT22;20549;50.042;8.968;2023-01-13T00:12:41;13.20;96.30
30999;DHT22;20549;50.042;8.968;2023-01-13T00:15:08;13.20;96.20
30999;DHT22;20549;50.042;8.968;2023-01-13T00:17:34;13.20;96.20
30999;DHT22;20549;50.042;8.968;2023-01-13T00:20:01;13.20;96.20
30999;DHT22;20549;50.042;8.968;2023-01-13T00:22:27;13.20;96.20
30999;DHT22;20549;50.042;8.968;2023-01-13T00:24:54;13.30;96.20
30999;DHT22;20549;50.042;8.968;2023-01-13T00:27:20;13.30;96.00
30999;DHT22;20549;50.042;8.968;2023-01-13T00:29:47;13.30;95.90
30999;DHT22;20549;50.042;8.968;2023-01-13T00:32:13;13.30;95.90
30999;DHT22;20549;50.042;8.968;2023-01-13T00:34:40;13.30;95.90
30999;DHT22;20549;50.042;8.968;2023-01-13T00:37:07;13.30;95.80
30999;DHT22;20549;50.042;8.968;2023-01-13T00:39:33;13.30;95.80
30999;DHT22;20549;50.042;8.968;2023-01-13T00:42:00;13.30;95.80
30999;DHT22;20549;50.042;8.968;2023-01-13T00:44:44;13.40;95.70
30999;DHT22;20549;50.042;8.968;2023-01-13T00:47:11;13.40;95.70
30999;DHT22;20549;50.042;8.968;2023-01-13T00:49:38;13.40;95.70
30999;DHT22;20549;50.042;8.968;2023-01-13T00:52:04;13.40;95.60
30999;DHT22;20549;50.042;8.968;2023-01-13T00:54:31;13.40;95.40
30999;DHT22;20549;50.042;8.968;2023-01-13T00:56:57;13.40;95.30
30999;DHT22;20549;50.042;8.968;2023-01-13T00:59:24;13.40;95.20
30999;DHT22;20549;50.042;8.968;2023-01-13T01:01:51;13.40;95.20
30999;DHT22;20549;50.042;8.968;2023-01-13T01:04:17;13.40;95.20
30999;DHT22;20549;50.042;8.968;2023-01-13T01:06:44;13.50;95.10
30999;DHT22;20549;50.042;8.968;2023-01-13T01:09:14;13.50;95.10
30999;DHT22;20549;50.042;8.968;2023-01-13T01:11:40;13.50;95.10
30999;DHT22;20549;50.042;8.968;2023-01-13T01:14:08;13.50;95.10
30999;DHT22;20549;50.042;8.968;2023-01-13T01:16:33;13.50;94.90
30999;DHT22;20549;50.042;8.968;2023-01-13T01:19:00;13.50;94.90
30999;DHT22;20549;50.042;8.968;2023-01-13T01:21:26;13.50;94.90
30999;DHT22;20549;50.042;8.968;2023-01-13T01:23:53;13.50;95.00
30999;DHT22;20549;50.042;8.968;2023-01-13T01:26:20;13.60;94.80
30999;DHT22;20549;50.042;8.968;2023-01-13T01:28:46;13.60;94.80
30999;DHT22;20549;50.042;8.968;2023-01-13T01:31:20;13.60;94.80
30999;DHT22;20549;50.042;8.968;2023-01-13T01:33:45;13.50;94.70
30999;DHT22;20549;50.042;8.968;2023-01-13T01:36:12;13.50;94.70
30999;DHT22;20549;50.042;8.968;2023-01-13T01:38:38;13.60;94.70
30999;DHT22;20549;50.042;8.968;2023-01-13T01:41:05;13.60;94.80
30999;DHT22;20549;50.042;8.968;2023-01-13T01:43:51;13.60;94.70
30999;DHT22;20549;50.042;8.968;2023-01-13T01:46:26;13.60;94.60
30999;DHT22;20549;50.042;8.968;2023-01-13T01:48:52;13.60;94.70
30999;DHT22;20549;50.042;8.968;2023-01-13T01:51:18;13.60;94.80
30999;DHT22;20549;50.042;8.968;2023-01-13T01:53:45;13.60;94.70
30999;DHT22;20549;50.042;8.968;2023-01-13T01:56:11;13.60;94.60
30999;DHT22;20549;50.042;8.968;2023-01-13T01:58:43;13.60;94.60
30999;DHT22;20549;50.042;8.968;2023-01-13T02:01:07;13.60;94.50
30999;DHT22;20549;50.042;8.968;2023-01-13T02:03:35;13.60;94.50
30999;DHT22;20549;50.042;8.968;2023-01-13T02:06:00;13.60;94.40
30999;DHT22;20549;50.042;8.968;2023-01-13T02:08:27;13.60;94.30
30999;DHT22;20549;50.042;8.968;2023-01-13T02:10:54;13.60;94.30
30999;DHT22;20549;50.042;8.968;2023-01-13T02:13:20;13.60;94.20
30999;DHT22;20549;50.042;8.968;2023-01-13T02:15:57;13.60;94.20
30999;DHT22;20549;50.042;8.968;2023-01-13T02:18:43;13.60;94.00
30999;DHT22;20549;50.042;8.968;2023-01-13T02:21:20;13.60;93.90
30999;DHT22;20549;50.042;8.968;2023-01-13T02:24:11;13.60;94.00
30999;DHT22;20549;50.042;8.968;2023-01-13T02:26:56;13.60;93.90
30999;DHT22;20549;50.042;8.968;2023-01-13T02:32:11;13.60;93.80
30999;DHT22;20549;50.042;8.968;2023-01-13T02:34:41;13.60;93.90
30999;DHT22;20549;50.042;8.968;2023-01-13T02:37:19;13.60;93.90
30999;DHT22;20549;50.042;8.968;2023-01-13T02:39:54;13.60;93.80
30999;DHT22;20549;50.042;8.968;2023-01-13T02:42:24;13.60;93.80
30999;DHT22;20549;50.042;8.968;2023-01-13T02:45:11;13.60;93.60
30999;DHT22;20549;50.042;8.968;2023-01-13T02:47:37;13.60;93.70
30999;DHT22;20549;50.042;8.968;2023-01-13T02:50:04;13.50;93.50
30999;DHT22;20549;50.042;8.968;2023-01-13T02:52:49;13.50;93.70
30999;DHT22;20549;50.042;8.968;2023-01-13T02:55:16;13.50;93.80
30999;DHT22;20549;50.042;8.968;2023-01-13T02:57:41;13.50;93.70
30999;DHT22;20549;50.042;8.968;2023-01-13T03:00:10;13.50;93.90
30999;DHT22;20549;50.042;8.968;2023-01-13T03:02:35;13.50;93.90
30999;DHT22;20549;50.042;8.968;2023-01-13T03:05:02;13.50;93.90
30999;DHT22;20549;50.042;8.968;2023-01-13T03:15:47;13.50;93.30
30999;DHT22;20549;50.042;8.968;2023-01-13T03:18:17;13.50;94.00
30999;DHT22;20549;50.042;8.968;2023-01-13T03:20:45;13.60;93.70
30999;DHT22;20549;50.042;8.968;2023-01-13T03:23:16;13.50;93.80
30999;DHT22;20549;50.042;8.968;2023-01-13T03:25:44;13.60;93.80
30999;DHT22;20549;50.042;8.968;2023-01-13T03:28:12;13.60;93.70
30999;DHT22;20549;50.042;8.968;2023-01-13T03:33:30;13.60;93.70
30999;DHT22;20549;50.042;8.968;2023-01-13T03:35:37;13.60;93.70
30999;DHT22;20549;50.042;8.968;2023-01-13T03:38:04;13.60;93.80
30999;DHT22;20549;50.042;8.968;2023-01-13T03:40:31;13.60;93.70
30999;DHT22;20549;50.042;8.968;2023-01-13T03:42:58;13.60;93.80
30999;DHT22;20549;50.042;8.968;2023-01-13T03:45:40;13.60;93.80
30999;DHT22;20549;50.042;8.968;2023-01-13T03:48:11;13.60;93.80
30999;DHT22;20549;50.042;8.968;2023-01-13T03:50:49;13.60;93.80
30999;DHT22;20549;50.042;8.968;2023-01-13T03:53:17;13.60;93.80
30999;DHT22;20549;50.042;8.968;2023-01-13T03:55:39;13.60;93.80
30999;DHT22;20549;50.042;8.968;2023-01-13T03:58:14;13.60;93.70
30999;DHT22;20549;50.042;8.968;2023-01-13T04:00:47;13.60;93.70
30999;DHT22;20549;50.042;8.968;2023-01-13T04:03:14;13.60;93.80
30999;DHT22;20549;50.042;8.968;2023-01-13T04:05:40;13.60;93.80
30999;DHT22;20549;50.042;8.968;2023-01-13T04:10:48;13.60;94.00
30999;DHT22;20549;50.042;8.968;2023-01-13T04:13:11;13.60;94.00
30999;DHT22;20549;50.042;8.968;2023-01-13T04:15:38;13.60;94.00
30999;DHT22;20549;50.042;8.968;2023-01-13T04:18:14;13.60;93.90
30999;DHT22;20549;50.042;8.968;2023-01-13T04:20:39;13.60;94.00
30999;DHT22;20549;50.042;8.968;2023-01-13T04:23:06;13.60;94.10
30999;DHT22;20549;50.042;8.968;2023-01-13T04:25:32;13.60;94.00
30999;DHT22;20549;50.042;8.968;2023-01-13T04:27:59;13.60;94.00
30999;DHT22;20549;50.042;8.968;2023-01-13T04:30:25;13.70;94.00
30999;DHT22;20549;50.042;8.968;2023-01-13T04:32:52;13.70;94.00
30999;DHT22;20549;50.042;8.968;2023-01-13T04:35:18;13.60;93.90
30999;DHT22;20549;50.042;8.968;2023-01-13T04:37:45;13.60;93.90
30999;DHT22;20549;50.042;8.968;2023-01-13T04:40:12;13.60;93.80
30999;DHT22;20549;50.042;8.968;2023-01-13T04:42:38;13.60;93.80
30999;DHT22;20549;50.042;8.968;2023-01-13T04:45:05;13.60;93.80
30999;DHT22;20549;50.042;8.968;2023-01-13T04:47:31;13.60;93.80
30999;DHT22;20549;50.042;8.968;2023-01-13T04:49:58;13.60;93.70
30999;DHT22;20549;50.042;8.968;2023-01-13T04:52:25;13.60;93.70
30999;DHT22;20549;50.042;8.968;2023-01-13T04:54:51;13.50;93.70
30999;DHT22;20549;50.042;8.968;2023-01-13T04:57:18;13.60;93.80
30999;DHT22;20549;50.042;8.968;2023-01-13T04:59:44;13.60;93.80
30999;DHT22;20549;50.042;8.968;2023-01-13T05:02:11;13.50;93.80
30999;DHT22;20549;50.042;8.968;2023-01-13T05:04:38;13.60;93.90
30999;DHT22;20549;50.042;8.968;2023-01-13T05:07:04;13.50;93.90
30999;DHT22;20549;50.042;8.968;2023-01-13T05:09:31;13.50;93.90
30999;DHT22;20549;50.042;8.968;2023-01-13T05:11:57;13.50;94.00
30999;DHT22;20549;50.042;8.968;2023-01-13T05:14:42;13.50;94.00
30999;DHT22;20549;50.042;8.968;2023-01-13T05:17:26;13.50;93.90
30999;DHT22;20549;50.042;8.968;2023-01-13T05:19:53;13.50;93.60
30999;DHT22;20549;50.042;8.968;2023-01-13T05:22:20;13.50;94.00
30999;DHT22;20549;50.042;8.968;2023-01-13T05:25:06;13.50;93.80
30999;DHT22;20549;50.042;8.968;2023-01-13T05:27:52;13.50;94.10
30999;DHT22;20549;50.042;8.968;2023-01-13T05:30:15;13.50;94.10
30999;DHT22;20549;50.042;8.968;2023-01-13T05:32:42;13.50;94.40
30999;DHT22;20549;50.042;8.968;2023-01-13T05:35:08;13.60;94.60
30999;DHT22;20549;50.042;8.968;2023-01-13T05:37:35;13.60;94.80
30999;DHT22;20549;50.042;8.968;2023-01-13T05:40:02;13.50;95.00
30999;DHT22;20549;50.042;8.968;2023-01-13T05:42:46;13.50;95.10
30999;DHT22;20549;50.042;8.968;2023-01-13T05:45:31;13.50;95.30
30999;DHT22;20549;50.042;8.968;2023-01-13T05:47:57;13.50;95.40
30999;DHT22;20549;50.042;8.968;2023-01-13T05:50:24;13.50;95.50
30999;DHT22;20549;50.042;8.968;2023-01-13T05:52:50;13.40;95.60
30999;DHT22;20549;50.042;8.968;2023-01-13T05:55:17;13.40;95.90
30999;DHT22;20549;50.042;8.968;2023-01-13T05:57:44;13.30;96.20
30999;DHT22;20549;50.042;8.968;2023-01-13T06:00:10;13.30;96.60
30999;DHT22;20549;50.042;8.968;2023-01-13T06:02:37;13.30;96.90
30999;DHT22;20549;50.042;8.968;2023-01-13T06:05:03;13.20;97.10
30999;DHT22;20549;50.042;8.968;2023-01-13T06:07:30;13.20;97.10
30999;DHT22;20549;50.042;8.968;2023-01-13T06:09:57;13.10;96.30
30999;DHT22;20549;50.042;8.968;2023-01-13T06:12:23;13.00;95.80
30999;DHT22;20549;50.042;8.968;2023-01-13T06:14:50;12.90;95.40
30999;DHT22;20549;50.042;8.968;2023-01-13T06:17:17;12.80;95.50
30999;DHT22;20549;50.042;8.968;2023-01-13T06:19:43;12.70;95.40
30999;DHT22;20549;50.042;8.968;2023-01-13T06:22:14;12.50;95.50
30999;DHT22;20549;50.042;8.968;2023-01-13T06:24:39;12.40;95.80
30999;DHT22;20549;50.042;8.968;2023-01-13T06:27:06;12.30;96.10
30999;DHT22;20549;50.042;8.968;2023-01-13T06:29:32;12.20;96.30
30999;DHT22;20549;50.042;8.968;2023-01-13T06:32:00;12.10;96.70
30999;DHT22;20549;50.042;8.968;2023-01-13T06:34:25;12.00;97.00
30999;DHT22;20549;50.042;8.968;2023-01-13T06:36:52;11.90;97.40
30999;DHT22;20549;50.042;8.968;2023-01-13T06:39:19;11.80;97.80
30999;DHT22;20549;50.042;8.968;2023-01-13T06:41:45;11.80;98.30
30999;DHT22;20549;50.042;8.968;2023-01-13T06:44:30;11.70;98.60
30999;DHT22;20549;50.042;8.968;2023-01-13T06:46:56;11.70;98.80
30999;DHT22;20549;50.042;8.968;2023-01-13T06:49:23;11.60;99.20
30999;DHT22;20549;50.042;8.968;2023-01-13T06:51:49;11.60;99.50
30999;DHT22;20549;50.042;8.968;2023-01-13T06:54:16;11.60;99.80
30999;DHT22;20549;50.042;8.968;2023-01-13T06:56:43;11.60;99.90
30999;DHT22;20549;50.042;8.968;2023-01-13T06:59:09;11.50;99.90
30999;DHT22;20549;50.042;8.968;2023-01-13T07:01:36;11.50;99.90
30999;DHT22;20549;50.042;8.968;2023-01-13T07:04:02;11.50;99.90
30999;DHT22;20549;50.042;8.968;2023-01-13T07:06:29;11.50;99.90
30999;DHT22;20549;50.042;8.968;2023-01-13T07:08:55;11.50;99.90
30999;DHT22;20549;50.042;8.968;2023-01-13T07:11:22;11.50;99.90
30999;DHT22;20549;50.042;8.968;2023-01-13T07:13:49;11.50;99.90
30999;DHT22;20549;50.042;8.968;2023-01-13T07:16:34;11.50;99.90
30999;DHT22;20549;50.042;8.968;2023-01-13T07:19:01;11.50;99.90
30999;DHT22;20549;50.042;8.968;2023-01-13T07:21:27;11.40;99.90
30999;DHT22;20549;50.042;8.968;2023-01-13T07:23:54;11.40;99.90
30999;DHT22;20549;50.042;8.968;2023-01-13T07:26:20;11.40;99.90
30999;DHT22;20549;50.042;8.968;2023-01-13T07:28:47;11.40;99.90
30999;DHT22;20549;50.042;8.968;2023-01-13T07:31:15;11.30;99.90
30999;DHT22;20549;50.042;8.968;2023-01-13T07:33:40;11.30;99.90
30999;DHT22;20549;50.042;8.968;2023-01-13T07:36:07;11.30;99.90
30999;DHT22;20549;50.042;8.968;2023-01-13T07:38:33;11.30;99.90
30999;DHT22;20549;50.042;8.968;2023-01-13T07:41:00;11.20;99.90
30999;DHT22;20549;50.042;8.968;2023-01-13T07:43:29;11.20;99.90
30999;DHT22;20549;50.042;8.968;2023-01-13T07:45:59;11.20;99.90
30999;DHT22;20549;50.042;8.968;2023-01-13T07:48:26;11.20;99.90
30999;DHT22;20549;50.042;8.968;2023-01-13T07:50:52;11.20;99.90
30999;DHT22;20549;50.042;8.968;2023-01-13T07:53:18;11.20;99.90
30999;DHT22;20549;50.042;8.968;2023-01-13T07:55:45;11.20;99.90
30999;DHT22;20549;50.042;8.968;2023-01-13T07:58:12;11.20;99.90
30999;DHT22;20549;50.042;8.968;2023-01-13T08:00:38;11.20;99.90
30999;DHT22;20549;50.042;8.968;2023-01-13T08:03:05;11.20;99.90
30999;DHT22;20549;50.042;8.968;2023-01-13T08:05:33;11.10;99.90
30999;DHT22;20549;50.042;8.968;2023-01-13T08:07:58;11.10;99.90
30999;DHT22;20549;50.042;8.968;2023-01-13T08:10:25;11.10;99.90
30999;DHT22;20549;50.042;8.968;2023-01-13T08:12:51;11.10;99.90
30999;DHT22;20549;50.042;8.968;2023-01-13T08:15:36;11.00;99.90
30999;DHT22;20549;50.042;8.968;2023-01-13T08:18:02;11.00;99.90
30999;DHT22;20549;50.042;8.968;2023-01-13T08:20:29;11.00;99.90
30999;DHT22;20549;50.042;8.968;2023-01-13T08:22:56;11.00;99.90
30999;DHT22;20549;50.042;8.968;2023-01-13T08:25:22;11.00;99.90
30999;DHT22;20549;50.042;8.968;2023-01-13T08:27:49;11.00;99.90
30999;DHT22;20549;50.042;8.968;2023-01-13T08:30:16;11.00;99.90
30999;DHT22;20549;50.042;8.968;2023-01-13T08:32:45;11.10;99.90
30999;DHT22;20549;50.042;8.968;2023-01-13T08:35:12;11.10;99.90
30999;DHT22;20549;50.042;8.968;2023-01-13T08:37:38;11.10;99.90
30999;DHT22;20549;50.042;8.968;2023-01-13T08:40:05;11.10;99.90
30999;DHT22;20549;50.042;8.968;2023-01-13T08:42:31;11.20;99.90
30999;DHT22;20549;50.042;8.968;2023-01-13T08:44:58;11.20;99.90
30999;DHT22;20549;50.042;8.968;2023-01-13T08:47:26;11.20;99.90
30999;DHT22;20549;50.042;8.968;2023-01-13T08:49:51;11.20;99.90
30999;DHT22;20549;50.042;8.968;2023-01-13T08:52:18;11.30;99.90
30999;DHT22;20549;50.042;8.968;2023-01-13T08:54:44;11.30;99.90
30999;DHT22;20549;50.042;8.968;2023-01-13T08:57:11;11.30;99.90
30999;DHT22;20549;50.042;8.968;2023-01-13T08:59:37;11.40;99.90
30999;DHT22;20549;50.042;8.968;2023-01-13T09:02:11;11.40;99.90
30999;DHT22;20549;50.042;8.968;2023-01-13T09:04:31;11.40;99.90
30999;DHT22;20549;50.042;8.968;2023-01-13T09:06:57;11.50;99.90
30999;DHT22;20549;50.042;8.968;2023-01-13T09:09:24;11.50;99.90
30999;DHT22;20549;50.042;8.968;2023-01-13T09:11:50;11.50;99.90
30999;DHT22;20549;50.042;8.968;2023-01-13T09:14:36;11.60;99.90
30999;DHT22;20549;50.042;8.968;2023-01-13T09:17:02;11.60;99.90
30999;DHT22;20549;50.042;8.968;2023-01-13T09:19:28;11.70;99.90
30999;DHT22;20549;50.042;8.968;2023-01-13T09:21:55;11.80;99.90
30999;DHT22;20549;50.042;8.968;2023-01-13T09:24:22;11.80;99.90
30999;DHT22;20549;50.042;8.968;2023-01-13T09:26:48;11.90;99.90
30999;DHT22;20549;50.042;8.968;2023-01-13T09:29:15;12.00;99.90
30999;DHT22;20549;50.042;8.968;2023-01-13T09:31:41;12.10;99.90
30999;DHT22;20549;50.042;8.968;2023-01-13T09:34:12;12.20;99.90
30999;DHT22;20549;50.042;8.968;2023-01-13T09:36:53;12.20;99.90
30999;DHT22;20549;50.042;8.968;2023-01-13T09:39:19;12.30;99.90
30999;DHT22;20549;50.042;8.968;2023-01-13T09:41:47;12.30;99.90
30999;DHT22;20549;50.042;8.968;2023-01-13T09:47:01;12.30;99.50
30999;DHT22;20549;50.042;8.968;2023-01-13T09:49:39;12.30;99.60
30999;DHT22;20549;50.042;8.968;2023-01-13T09:52:12;12.30;99.70
30999;DHT22;20549;50.042;8.968;2023-01-13T09:54:54;12.30;99.80
30999;DHT22;20549;50.042;8.968;2023-01-13T09:57:19;12.30;99.70
30999;DHT22;20549;50.042;8.968;2023-01-13T09:59:46;12.30;99.60
30999;DHT22;20549;50.042;8.968;2023-01-13T10:02:21;12.30;99.80
30999;DHT22;20549;50.042;8.968;2023-01-13T10:05:00;12.30;99.60
30999;DHT22;20549;50.042;8.968;2023-01-13T10:07:12;12.40;99.60
30999;DHT22;20549;50.042;8.968;2023-01-13T10:12:04;12.60;99.30
30999;DHT22;20549;50.042;8.968;2023-01-13T10:14:53;12.60;99.00
30999;DHT22;20549;50.042;8.968;2023-01-13T10:26:02;13.00;97.60
30999;DHT22;20549;50.042;8.968;2023-01-13T10:28:26;13.00;97.80
30999;DHT22;20549;50.042;8.968;2023-01-13T10:30:52;13.20;97.60
30999;DHT22;20549;50.042;8.968;2023-01-13T10:33:23;13.30;97.90
30999;DHT22;20549;50.042;8.968;2023-01-13T10:38:22;13.50;97.60
30999;DHT22;20549;50.042;8.968;2023-01-13T10:40:52;13.70;97.50
30999;DHT22;20549;50.042;8.968;2023-01-13T10:43:14;13.80;96.60
30999;DHT22;20549;50.042;8.968;2023-01-13T10:45:42;13.90;95.70
30999;DHT22;20549;50.042;8.968;2023-01-13T10:48:09;14.00;94.70
30999;DHT22;20549;50.042;8.968;2023-01-13T10:50:34;14.10;94.10
30999;DHT22;20549;50.042;8.968;2023-01-13T10:53:16;14.10;93.80
30999;DHT22;20549;50.042;8.968;2023-01-13T10:55:42;14.10;93.30
30999;DHT22;20549;50.042;8.968;2023-01-13T10:58:18;14.10;92.90
30999;DHT22;20549;50.042;8.968;2023-01-13T11:00:44;14.10;92.80
30999;DHT22;20549;50.042;8.968;2023-01-13T11:03:20;14.10;92.60
30999;DHT22;20549;50.042;8.968;2023-01-13T11:05:56;14.10;92.20
30999;DHT22;20549;50.042;8.968;2023-01-13T11:08:23;14.10;92.00
30999;DHT22;20549;50.042;8.968;2023-01-13T11:10:49;14.20;91.00
30999;DHT22;20549;50.042;8.968;2023-01-13T11:13:29;14.20;91.30
30999;DHT22;20549;50.042;8.968;2023-01-13T11:16:00;14.20;91.40
30999;DHT22;20549;50.042;8.968;2023-01-13T11:21:23;14.30;91.40
30999;DHT22;20549;50.042;8.968;2023-01-13T11:23:47;14.40;90.50
30999;DHT22;20549;50.042;8.968;2023-01-13T11:26:20;14.50;90.30
30999;DHT22;20549;50.042;8.968;2023-01-13T11:28:49;14.50;90.20
30999;DHT22;20549;50.042;8.968;2023-01-13T11:31:35;14.50;89.00
30999;DHT22;20549;50.042;8.968;2023-01-13T11:36:50;14.40;86.60
30999;DHT22;20549;50.042;8.968;2023-01-13T11:39:53;14.40;85.40
30999;DHT22;20549;50.042;8.968;2023-01-13T11:42:31;14.30;85.10
30999;DHT22;20549;50.042;8.968;2023-01-13T11:45:06;14.10;84.50
30999;DHT22;20549;50.042;8.968;2023-01-13T11:47:31;14.00;84.20
30999;DHT22;20549;50.042;8.968;2023-01-13T11:49:58;13.90;84.70
30999;DHT22;20549;50.042;8.968;2023-01-13T11:55:26;13.80;85.30
30999;DHT22;20549;50.042;8.968;2023-01-13T11:57:53;13.70;85.70
30999;DHT22;20549;50.042;8.968;2023-01-13T12:06:05;13.60;85.80
30999;DHT22;20549;50.042;8.968;2023-01-13T12:08:44;13.60;85.50
30999;DHT22;20549;50.042;8.968;2023-01-13T12:11:30;13.60;85.20
30999;DHT22;20549;50.042;8.968;2023-01-13T12:16:30;13.60;85.80
30999;DHT22;20549;50.042;8.968;2023-01-13T12:21:26;13.80;85.60
30999;DHT22;20549;50.042;8.968;2023-01-13T12:26:28;13.90;84.40
30999;DHT22;20549;50.042;8.968;2023-01-13T12:29:08;14.10;83.90
30999;DHT22;20549;50.042;8.968;2023-01-13T12:31:23;14.10;83.40
30999;DHT22;20549;50.042;8.968;2023-01-13T12:37:33;14.20;82.60
30999;DHT22;20549;50.042;8.968;2023-01-13T12:39:34;14.20;81.90
30999;DHT22;20549;50.042;8.968;2023-01-13T12:42:22;14.20;81.70
30999;DHT22;20549;50.042;8.968;2023-01-13T12:47:41;14.20;81.10
30999;DHT22;20549;50.042;8.968;2023-01-13T12:52:57;14.20;80.30
30999;DHT22;20549;50.042;8.968;2023-01-13T12:55:20;14.20;80.70
30999;DHT22;20549;50.042;8.968;2023-01-13T13:00:35;14.00;80.00
30999;DHT22;20549;50.042;8.968;2023-01-13T13:13:57;13.20;82.60
30999;DHT22;20549;50.042;8.968;2023-01-13T13:19:10;12.90;84.40
30999;DHT22;20549;50.042;8.968;2023-01-13T13:21:19;12.80;85.00
30999;DHT22;20549;50.042;8.968;2023-01-13T13:31:55;12.60;86.80
30999;DHT22;20549;50.042;8.968;2023-01-13T13:34:27;12.60;86.80
30999;DHT22;20549;50.042;8.968;2023-01-13T13:39:29;12.70;86.40
30999;DHT22;20549;50.042;8.968;2023-01-13T13:42:15;12.70;85.00
30999;DHT22;20549;50.042;8.968;2023-01-13T13:44:57;12.80;85.10
30999;DHT22;20549;50.042;8.968;2023-01-13T13:47:42;12.90;84.90
30999;DHT22;20549;50.042;8.968;2023-01-13T13:50:16;13.00;84.00
30999;DHT22;20549;50.042;8.968;2023-01-13T13:52:47;13.10;83.40
30999;DHT22;20549;50.042;8.968;2023-01-13T13:55:14;13.10;83.00
30999;DHT22;20549;50.042;8.968;2023-01-13T13:57:43;13.20;82.80
30999;DHT22;20549;50.042;8.968;2023-01-13T14:00:53;13.20;82.60
30999;DHT22;20549;50.042;8.968;2023-01-13T14:02:34;13.20;83.00
30999;DHT22;20549;50.042;8.968;2023-01-13T14:05:19;13.30;83.10
30999;DHT22;20549;50.042;8.968;2023-01-13T14:07:49;13.20;83.10
30999;DHT22;20549;50.042;8.968;2023-01-13T14:10:21;13.20;82.70
30999;DHT22;20549;50.042;8.968;2023-01-13T14:12:46;13.10;82.50
30999;DHT22;20549;50.042;8.968;2023-01-13T14:15:25;13.10;82.50
30999;DHT22;20549;50.042;8.968;2023-01-13T14:17:48;13.00;82.50
30999;DHT22;20549;50.042;8.968;2023-01-13T14:20:16;12.90;82.80
30999;DHT22;20549;50.042;8.968;2023-01-13T14:22:47;12.80;82.90
30999;DHT22;20549;50.042;8.968;2023-01-13T14:25:27;12.80;82.70
30999;DHT22;20549;50.042;8.968;2023-01-13T14:27:53;12.70;82.60
30999;DHT22;20549;50.042;8.968;2023-01-13T14:30:19;12.60;82.60
30999;DHT22;20549;50.042;8.968;2023-01-13T14:32:46;12.50;82.80
30999;DHT22;20549;50.042;8.968;2023-01-13T14:35:16;12.50;83.20
30999;DHT22;20549;50.042;8.968;2023-01-13T14:37:42;12.40;83.40
30999;DHT22;20549;50.042;8.968;2023-01-13T14:43:00;12.40;83.60
30999;DHT22;20549;50.042;8.968;2023-01-13T14:45:26;12.30;83.50
30999;DHT22;20549;50.042;8.968;2023-01-13T14:47:53;12.30;83.70
30999;DHT22;20549;50.042;8.968;2023-01-13T14:50:20;12.30;84.20
30999;DHT22;20549;50.042;8.968;2023-01-13T14:52:47;12.30;85.10
30999;DHT22;20549;50.042;8.968;2023-01-13T14:57:45;12.30;85.40
30999;DHT22;20549;50.042;8.968;2023-01-13T15:10:58;12.00;84.80
30999;DHT22;20549;50.042;8.968;2023-01-13T15:13:43;12.00;85.00
30999;DHT22;20549;50.042;8.968;2023-01-13T15:16:19;11.90;84.90
30999;DHT22;20549;50.042;8.968;2023-01-13T15:18:44;11.90;85.00
30999;DHT22;20549;50.042;8.968;2023-01-13T15:21:11;11.90;85.20
30999;DHT22;20549;50.042;8.968;2023-01-13T15:23:37;11.90;85.40
30999;DHT22;20549;50.042;8.968;2023-01-13T15:26:26;11.80;85.40
30999;DHT22;20549;50.042;8.968;2023-01-13T15:28:31;11.80;85.60
30999;DHT22;20549;50.042;8.968;2023-01-13T15:30:57;11.80;85.70
30999;DHT22;20549;50.042;8.968;2023-01-13T15:33:24;11.80;85.80
30999;DHT22;20549;50.042;8.968;2023-01-13T15:35:51;11.80;85.80
30999;DHT22;20549;50.042;8.968;2023-01-13T15:38:18;11.80;85.70
30999;DHT22;20549;50.042;8.968;2023-01-13T15:40:44;11.80;86.10
30999;DHT22;20549;50.042;8.968;2023-01-13T15:43:14;11.80;85.80
30999;DHT22;20549;50.042;8.968;2023-01-13T15:45:58;11.80;85.80
30999;DHT22;20549;50.042;8.968;2023-01-13T15:48:42;11.80;85.40
30999;DHT22;20549;50.042;8.968;2023-01-13T15:51:10;11.90;85.50
30999;DHT22;20549;50.042;8.968;2023-01-13T15:53:35;11.80;85.40
30999;DHT22;20549;50.042;8.968;2023-01-13T15:56:02;11.90;85.60
30999;DHT22;20549;50.042;8.968;2023-01-13T15:58:29;11.90;85.30
30999;DHT22;20549;50.042;8.968;2023-01-13T16:00:55;11.90;85.00
30999;DHT22;20549;50.042;8.968;2023-01-13T16:03:22;11.90;85.30
30999;DHT22;20549;50.042;8.968;2023-01-13T16:05:48;11.90;85.40
30999;DHT22;20549;50.042;8.968;2023-01-13T16:08:18;11.90;85.50
30999;DHT22;20549;50.042;8.968;2023-01-13T16:10:44;11.90;85.50
30999;DHT22;20549;50.042;8.968;2023-01-13T16:13:11;11.90;85.30
30999;DHT22;20549;50.042;8.968;2023-01-13T16:15:41;11.90;85.30
30999;DHT22;20549;50.042;8.968;2023-01-13T16:18:04;11.90;85.00
30999;DHT22;20549;50.042;8.968;2023-01-13T16:20:31;11.90;85.20
30999;DHT22;20549;50.042;8.968;2023-01-13T16:22:57;11.90;85.00
30999;DHT22;20549;50.042;8.968;2023-01-13T16:25:25;11.90;84.60
30999;DHT22;20549;50.042;8.968;2023-01-13T16:27:50;11.90;84.40
30999;DHT22;20549;50.042;8.968;2023-01-13T16:30:26;11.90;84.40
30999;DHT22;20549;50.042;8.968;2023-01-13T16:32:49;11.90;84.20
30999;DHT22;20549;50.042;8.968;2023-01-13T16:35:16;11.80;84.10
30999;DHT22;20549;50.042;8.968;2023-01-13T16:37:42;11.80;84.20
30999;DHT22;20549;50.042;8.968;2023-01-13T16:40:11;11.80;84.10
30999;DHT22;20549;50.042;8.968;2023-01-13T16:42:36;11.70;84.10
30999;DHT22;20549;50.042;8.968;2023-01-13T16:45:02;11.70;83.80
30999;DHT22;20549;50.042;8.968;2023-01-13T16:47:29;11.70;84.10
30999;DHT22;20549;50.042;8.968;2023-01-13T16:49:55;11.70;84.10
30999;DHT22;20549;50.042;8.968;2023-01-13T16:52:22;11.70;84.40
30999;DHT22;20549;50.042;8.968;2023-01-13T16:54:49;11.60;84.30
30999;DHT22;20549;50.042;8.968;2023-01-13T16:57:15;11.70;84.50
30999;DHT22;20549;50.042;8.968;2023-01-13T16:59:42;11.60;84.60
30999;DHT22;20549;50.042;8.968;2023-01-13T17:02:14;11.60;84.70
30999;DHT22;20549;50.042;8.968;2023-01-13T17:04:40;11.60;84.80
30999;DHT22;20549;50.042;8.968;2023-01-13T17:07:07;11.70;84.90
30999;DHT22;20549;50.042;8.968;2023-01-13T17:09:33;11.70;84.90
30999;DHT22;20549;50.042;8.968;2023-01-13T17:12:00;11.60;84.80
30999;DHT22;20549;50.042;8.968;2023-01-13T17:14:27;11.60;84.70
30999;DHT22;20549;50.042;8.968;2023-01-13T17:16:55;11.60;84.80
30999;DHT22;20549;50.042;8.968;2023-01-13T17:19:20;11.70;84.90
30999;DHT22;20549;50.042;8.968;2023-01-13T17:21:46;11.70;85.00
30999;DHT22;20549;50.042;8.968;2023-01-13T17:24:13;11.70;84.90
30999;DHT22;20549;50.042;8.968;2023-01-13T17:26:40;11.70;84.80